YAYE/AYQ METAR and TAF weather

Enter ICAO airport designator
Station Type Date Time Source
YAYE METAR 2021/04/14 19:00 UTC NOAA

YAYE 141900Z AUTO 15006KT 9999 // SCT095 16/10 Q1019


Station Type Date Time Source
YAYE Decoded METAR 2021/04/14 19:00 UTC NOAA

Ayers Rock, Australia (YAYE) 25-11S 130-58E
Apr 14, 2021 - 03:00 PM EDT / 2021.04.14 1900 UTC
Wind: from the SSE (150 degrees) at 7 MPH (6 KT):0
Visibility: greater than 7 mile(s):0
Sky conditions: partly cloudy
Temperature: 60 F (16 C)
Dew Point: 50 F (10 C)
Relative Humidity: 67%
Pressure (altimeter): 30.09 in. Hg (1019 hPa)
ob: YAYE 141900Z AUTO 15006KT 9999 // SCT095 16/10 Q1019
cycle: 19

Station Type Date Time Source
YAYE TAF UTC NOAA

Error!

Example: see airport list